Time;durP1;ratioP1;P1;durP2;ratioP2;P2;SDS_P1;SDS_P2;PMS_P1;PMS_P2;Temp;Humidity;BMP_temperature;BMP_pressure;BME280_temperature;BME280_humidity;BME280_pressure;Samples;Min_cycle;Max_cycle;Signal;HPM_P1;HPM_P2
2022/02/05 00:01:05;;;;;;;11.88;5.70;;;;;;;2.41;92.53;148272.78;1683839;83;21836;-61
2022/02/05 00:03:39;;;;;;;10.82;5.40;;;;;;;2.41;92.50;148272.78;1693366;82;21056;-61
2022/02/05 00:06:00;;;;;;;8.93;5.03;;;;;;;2.40;92.47;148271.47;1672206;84;21038;-60
2022/02/05 00:08:54;;;;;;;11.68;5.58;;;;;;;2.40;92.51;148270.20;1681615;83;21088;-61
2022/02/05 00:40:49;;;;;;;12.47;6.47;;;;;;;2.45;92.71;148281.83;1678584;83;21411;-62
2022/02/05 00:43:12;;;;;;;11.78;5.53;;;;;;;2.46;92.81;148285.67;1657126;85;21550;-61
2022/02/05 00:45:46;;;;;;;11.97;6.08;;;;;;;2.48;92.81;148289.56;1685450;83;21518;-60
2022/02/05 00:48:13;;;;;;;11.57;5.95;;;;;;;2.49;92.79;148292.14;1683394;84;21498;-61
2022/02/05 00:50:45;;;;;;;9.98;6.20;;;;;;;2.48;92.86;148290.83;1673615;83;21088;-61
2022/02/05 00:53:32;;;;;;;14.18;6.80;;;;;;;2.46;93.12;148285.67;1681428;84;21861;-61
2022/02/05 00:55:44;;;;;;;16.77;7.90;;;;;;;2.44;93.39;148280.52;1674006;84;21123;-61
2022/02/05 00:58:10;;;;;;;11.70;6.67;;;;;;;2.43;93.72;148279.25;1674218;83;21544;-60
2022/02/05 01:00:37;;;;;;;12.43;6.42;;;;;;;2.42;93.83;148275.36;1660523;85;21617;-62
2022/02/05 01:03:04;;;;;;;12.23;6.30;;;;;;;2.41;93.97;148272.78;1658687;86;21064;-61
2022/02/05 01:05:34;;;;;;;14.20;6.53;;;;;;;2.42;93.97;148275.36;1660175;86;21998;-61
2022/02/05 01:08:01;;;;;;;12.13;5.75;;;;;;;2.41;94.04;148272.78;1661143;85;21040;-61
2022/02/05 01:10:30;;;;;;;13.72;6.85;;;;;;;2.41;94.04;148272.78;1670394;84;21051;-61
2022/02/05 01:13:04;;;;;;;10.35;6.08;;;;;;;2.41;94.13;148274.05;1659694;85;21063;-62
2022/02/05 01:15:35;;;;;;;14.43;6.22;;;;;;;2.41;94.11;148272.78;1659968;85;21100;-60
2022/02/05 01:18:01;;;;;;;13.35;7.12;;;;;;;2.41;94.10;148272.78;1657247;86;21198;-61
2022/02/05 01:23:12;;;;;;;13.15;5.80;;;;;;;2.41;94.15;148272.78;1658402;85;21066;-60
2022/02/05 01:25:43;;;;;;;12.80;6.28;;;;;;;2.41;94.19;148272.78;1658666;85;21582;-60
2022/02/05 01:28:16;;;;;;;13.75;7.72;;;;;;;2.41;94.13;148272.78;1660284;85;21536;-60
2022/02/05 01:30:44;;;;;;;11.70;6.50;;;;;;;2.41;94.15;148272.78;1661620;84;21139;-61
2022/02/05 01:33:25;;;;;;;12.40;6.40;;;;;;;2.43;94.24;148277.94;1660446;84;21009;-61
2022/02/05 01:49:58;;;;;;;;;;;;;;;2.33;94.51;148253.44;1658157;86;21100;-61
2022/02/05 01:52:08;;;;;;;11.48;6.03;;;;;;;2.32;94.46;148250.86;1663958;83;20222;-61
2022/02/05 01:54:37;;;;;;;12.53;6.42;;;;;;;2.31;94.48;148246.97;1638139;85;21111;-62
2022/02/05 01:57:17;;;;;;;10.25;5.95;;;;;;;2.31;94.41;148248.28;1650737;85;21960;-60
2022/02/05 02:05:04;;;;;;;11.38;5.87;;;;;;;2.28;93.91;148241.81;1660586;85;21004;-60
2022/02/05 02:15:44;;;;;;;11.60;6.33;;;;;;;2.29;93.92;148244.39;1658527;86;21132;-59
2022/02/05 02:18:20;;;;;;;11.80;5.60;;;;;;;2.29;93.78;148244.39;1659604;86;21541;-62
2022/02/05 02:28:57;;;;;;;11.90;5.65;;;;;;;2.34;93.18;148254.75;1655296;86;20953;-61
2022/02/05 02:31:23;;;;;;;11.85;6.10;;;;;;;2.34;92.96;148254.75;1661626;83;21164;-61
2022/02/05 02:33:50;;;;;;;13.58;6.62;;;;;;;2.33;92.96;148253.44;1660666;84;21098;-61
2022/02/05 02:39:03;;;;;;;13.50;5.60;;;;;;;2.35;93.16;148257.33;1659364;85;21203;-61
2022/02/05 02:41:38;;;;;;;10.85;5.75;;;;;;;2.37;92.92;148262.48;1661487;85;21460;-61
2022/02/05 02:43:56;;;;;;;10.38;5.58;;;;;;;2.37;92.83;148262.48;1661681;85;21071;-59
2022/02/05 02:46:22;;;;;;;12.53;5.53;;;;;;;2.38;92.80;148265.06;1658487;86;21518;-61
2022/02/05 02:48:50;;;;;;;12.60;6.10;;;;;;;2.38;92.56;148265.06;1660043;86;21190;-60
2022/02/05 02:56:55;;;;;;;13.78;6.37;;;;;;;2.38;91.79;148265.06;1660847;86;21519;-59
2022/02/05 02:59:29;;;;;;;11.00;5.83;;;;;;;2.40;91.59;148270.20;1664833;82;21324;-61
2022/02/05 03:02:00;;;;;;;9.70;5.42;;;;;;;2.42;91.51;148276.62;1671089;83;21560;-61
2022/02/05 03:04:22;;;;;;;10.13;5.15;;;;;;;2.45;91.26;148283.09;1671335;83;21083;-59
2022/02/05 03:06:49;;;;;;;10.65;5.75;;;;;;;2.47;91.11;148288.25;1671299;84;21036;-59
2022/02/05 03:09:16;;;;;;;10.55;5.80;;;;;;;2.45;90.99;148283.09;1670071;84;21147;-60
2022/02/05 03:11:42;;;;;;;11.48;5.80;;;;;;;2.47;90.93;148286.98;1671059;84;21059;-61
2022/02/05 03:14:09;;;;;;;15.43;6.47;;;;;;;2.48;90.76;148289.56;1669712;84;21211;-60
2022/02/05 03:16:37;;;;;;;12.55;6.03;;;;;;;2.50;90.57;148295.97;1667978;85;21096;-59
2022/02/05 03:21:31;;;;;;;11.20;5.40;;;;;;;2.52;90.28;148299.88;1614843;87;21135;-60
2022/02/05 03:23:58;;;;;;;13.70;6.70;;;;;;;2.53;90.23;148303.70;1668670;84;21163;-60
2022/02/05 03:26:25;;;;;;;12.95;5.78;;;;;;;2.53;90.21;148303.70;1609924;87;21144;-60
2022/02/05 03:28:52;;;;;;;16.95;5.53;;;;;;;2.54;90.17;148305.02;1668693;85;21095;-60
2022/02/05 03:31:19;;;;;;;9.80;5.72;;;;;;;2.55;90.20;148307.59;1669532;85;21651;-60
2022/02/05 03:33:46;;;;;;;11.75;5.50;;;;;;;2.55;90.30;148308.91;1670019;85;21115;-61
2022/02/05 03:36:12;;;;;;;14.25;6.15;;;;;;;2.56;90.47;148311.48;1677316;84;21603;-60
2022/02/05 03:38:39;;;;;;;9.95;5.53;;;;;;;2.56;90.49;148311.48;1668864;84;21137;-60
2022/02/05 03:41:06;;;;;;;9.40;5.25;;;;;;;2.57;90.40;148312.75;1670495;85;21530;-60
2022/02/05 03:43:33;;;;;;;8.15;4.85;;;;;;;2.57;90.14;148314.06;1670320;84;21075;-59
2022/02/05 03:45:59;;;;;;;11.43;5.33;;;;;;;2.56;89.98;148311.48;1670755;84;21626;-61
2022/02/05 03:48:26;;;;;;;11.80;5.60;;;;;;;2.55;90.05;148307.59;1669381;85;21126;-61
2022/02/05 03:50:53;;;;;;;11.75;5.33;;;;;;;2.55;90.27;148307.59;1670720;84;21790;-60
2022/02/05 03:53:20;;;;;;;12.95;5.83;;;;;;;2.55;90.56;148308.91;1668676;84;21111;-61
2022/02/05 03:55:46;;;;;;;8.88;4.67;;;;;;;2.56;90.84;148311.48;1609533;88;21689;-60
2022/02/05 03:58:13;;;;;;;8.93;4.78;;;;;;;2.55;90.98;148308.91;1669486;84;21531;-61
2022/02/05 04:00:41;;;;;;;11.60;5.50;;;;;;;2.56;91.17;148311.48;1661440;83;21087;-61
2022/02/05 04:03:08;;;;;;;11.90;5.60;;;;;;;2.54;91.35;148306.34;1610933;87;21153;-60
2022/02/05 04:05:35;;;;;;;10.88;4.80;;;;;;;2.53;91.46;148303.70;1670937;84;21123;-59
2022/02/05 04:08:04;;;;;;;10.23;4.67;;;;;;;2.52;91.51;148299.88;1665634;85;21581;-62
2022/02/05 04:10:32;;;;;;;12.70;5.00;;;;;;;2.53;91.57;148303.70;1670118;84;21082;-62
2022/02/05 04:16:08;;;;;;;;;;;;;;;2.55;92.13;148307.59;1679303;84;22241;-59
2022/02/05 04:18:27;;;;;;;11.35;6.50;;;;;;;2.56;92.68;148311.48;1679427;83;20130;-59
2022/02/05 04:20:54;;;;;;;10.58;6.47;;;;;;;2.55;92.75;148307.59;1670480;84;21088;-60
2022/02/05 04:23:21;;;;;;;17.80;6.37;;;;;;;2.56;93.01;148310.17;1676627;84;21080;-59
2022/02/05 04:25:48;;;;;;;10.43;5.65;;;;;;;2.55;93.30;148308.91;1668548;85;21037;-59
2022/02/05 04:28:14;;;;;;;12.30;6.08;;;;;;;2.55;93.58;148308.91;1608375;87;21212;-59
2022/02/05 04:30:41;;;;;;;12.25;5.47;;;;;;;2.55;93.86;148308.91;1671218;84;21118;-60
2022/02/05 04:33:07;;;;;;;10.00;5.10;;;;;;;2.54;94.07;148306.34;1671940;84;21108;-60
2022/02/05 04:35:34;;;;;;;12.03;5.50;;;;;;;2.54;94.22;148306.34;1664295;84;21106;-60
2022/02/05 04:38:03;;;;;;;16.82;6.12;;;;;;;2.55;94.45;148308.91;1670988;84;21107;-59
2022/02/05 04:40:37;;;;;;;10.48;5.12;;;;;;;2.55;94.53;148308.91;1669452;85;21162;-59
2022/02/05 04:48:41;;;;;;;10.38;5.78;;;;;;;2.53;95.14;148303.70;1658239;84;21076;-59
2022/02/05 04:59:14;;;;;;;12.65;4.60;;;;;;;2.49;95.98;148293.41;1673845;84;20969;-59
2022/02/05 05:04:31;;;;;;;11.18;5.90;;;;;;;2.49;96.58;148293.41;1623968;87;21148;-61
2022/02/05 05:07:43;;;;;;;11.60;5.42;;;;;;;2.46;97.06;148285.67;1653189;85;22385;-61
2022/02/05 05:09:20;;;;;;;13.60;6.30;;;;;;;2.45;97.48;148283.09;1655912;85;21041;-59
2022/02/05 05:12:17;;;;;;;11.97;5.25;;;;;;;2.43;97.67;148277.94;1657768;86;21489;-60
2022/02/05 05:19:52;;;;;;;9.60;4.97;;;;;;;2.40;98.79;148270.20;1660360;85;21209;-60
2022/02/05 05:22:05;;;;;;;11.63;4.83;;;;;;;2.41;99.05;148272.78;1645098;86;21061;-59
2022/02/05 05:24:32;;;;;;;10.20;4.95;;;;;;;2.41;99.39;148272.78;1659472;85;20998;-62
2022/02/05 05:26:59;;;;;;;10.78;5.10;;;;;;;2.41;99.68;148272.78;1657591;85;21075;-61
2022/02/05 05:29:25;;;;;;;11.90;5.40;;;;;;;2.41;99.75;148272.78;1664911;85;21044;-62
2022/02/05 05:31:53;;;;;;;9.90;5.03;;;;;;;2.41;100.00;148272.78;1657809;86;21091;-62
2022/02/05 05:34:19;;;;;;;10.15;5.25;;;;;;;2.40;100.00;148271.47;1602228;87;21573;-61
2022/02/05 05:36:46;;;;;;;8.65;5.00;;;;;;;2.41;100.00;148274.05;1659092;86;21033;-60
2022/02/05 05:39:14;;;;;;;10.82;5.60;;;;;;;2.43;100.00;148277.94;1660052;86;21242;-61
2022/02/05 05:41:41;;;;;;;11.38;5.08;;;;;;;2.47;100.00;148288.25;1612222;88;21134;-60
2022/02/05 05:47:14;;;;;;;12.20;4.60;;;;;;;2.52;100.00;148299.88;1647703;86;21060;-60
2022/02/05 05:49:44;;;;;;;13.95;5.28;;;;;;;2.54;100.00;148305.02;1647302;85;21084;-60
2022/02/05 05:51:52;;;;;;;11.75;4.78;;;;;;;2.54;100.00;148306.34;1653673;85;21083;-60
2022/02/05 05:54:19;;;;;;;9.15;4.83;;;;;;;2.55;100.00;148308.91;1652295;86;21048;-60
2022/02/05 05:56:46;;;;;;;15.03;5.78;;;;;;;2.54;100.00;148306.34;1656383;85;21151;-62
2022/02/05 05:59:13;;;;;;;12.70;5.10;;;;;;;2.56;100.00;148310.17;1657577;85;21647;-60
2022/02/05 06:01:40;;;;;;;11.80;5.17;;;;;;;2.58;100.00;148316.64;1671214;84;21057;-61
2022/02/05 06:04:07;;;;;;;10.60;4.45;;;;;;;2.61;100.00;148321.80;1672173;85;21061;-61
2022/02/05 06:06:34;;;;;;;13.15;5.10;;;;;;;2.62;100.00;148324.38;1678892;84;21563;-61
2022/02/05 06:09:01;;;;;;;10.93;4.90;;;;;;;2.63;100.00;148326.95;1673654;84;21150;-61
2022/02/05 06:11:28;;;;;;;11.40;5.33;;;;;;;2.63;100.00;148326.95;1674926;84;21030;-61
2022/02/05 06:13:55;;;;;;;9.50;4.62;;;;;;;2.63;100.00;148328.22;1673210;84;21112;-62
2022/02/05 06:16:29;;;;;;;9.45;4.37;;;;;;;2.65;100.00;148333.42;1671481;84;20928;-61
2022/02/05 06:18:51;;;;;;;10.28;4.25;;;;;;;2.66;100.00;148334.69;1672982;84;21513;-61
2022/02/05 06:21:19;;;;;;;8.78;4.12;;;;;;;2.67;100.00;148338.58;1670398;85;21140;-60
2022/02/05 06:23:47;;;;;;;9.63;4.22;;;;;;;2.69;100.00;148342.42;1670781;85;21038;-62
2022/02/05 06:26:14;;;;;;;8.95;4.67;;;;;;;2.71;100.00;148347.56;1673282;84;21136;-61
2022/02/05 06:28:40;;;;;;;11.28;4.55;;;;;;;2.73;100.00;148352.72;1673364;84;21052;-61
2022/02/05 06:31:07;;;;;;;12.70;4.62;;;;;;;2.75;100.00;148357.88;1673191;84;21139;-61
2022/02/05 06:33:34;;;;;;;11.80;4.58;;;;;;;2.77;100.00;148361.77;1671621;84;21147;-61
2022/02/05 06:36:01;;;;;;;10.50;4.65;;;;;;;2.78;100.00;148364.34;1669999;84;21051;-60
2022/02/05 06:38:28;;;;;;;9.10;4.55;;;;;;;2.81;100.00;148373.41;1671726;84;21096;-59
2022/02/05 06:40:55;;;;;;;12.65;5.00;;;;;;;2.84;100.00;148379.81;1670182;85;21110;-60
2022/02/05 06:43:21;;;;;;;11.00;4.78;;;;;;;2.86;100.00;148386.28;1671400;83;21106;-60
2022/02/05 06:45:48;;;;;;;12.43;4.50;;;;;;;2.89;100.00;148391.44;1669878;84;22350;-60
2022/02/05 06:48:15;;;;;;;11.40;4.80;;;;;;;2.91;100.00;148396.59;1669268;84;21026;-60
2022/02/05 06:50:42;;;;;;;12.28;4.42;;;;;;;2.94;100.00;148404.33;1670837;85;21041;-64
2022/02/05 06:53:09;;;;;;;9.70;4.33;;;;;;;2.96;100.00;148410.80;1673217;85;21056;-60
2022/02/05 06:55:35;;;;;;;11.15;4.45;;;;;;;2.98;100.00;148414.64;1660890;84;21152;-59
2022/02/05 06:58:02;;;;;;;10.05;4.60;;;;;;;2.99;100.00;148417.27;1688903;84;21122;-60
2022/02/05 07:00:30;;;;;;;8.35;4.28;;;;;;;3.01;100.00;148422.42;1695123;82;21027;-59
2022/02/05 07:02:58;;;;;;;9.88;3.92;;;;;;;3.04;100.00;148428.84;1702284;83;22269;-61
2022/02/05 07:05:26;;;;;;;8.95;4.00;;;;;;;3.06;100.00;148435.31;1703435;84;21123;-60
2022/02/05 07:07:54;;;;;;;10.88;4.40;;;;;;;3.09;100.00;148443.05;1704375;84;21099;-60
2022/02/05 07:10:20;;;;;;;8.45;4.33;;;;;;;3.10;100.00;148445.62;1705937;84;21781;-60
2022/02/05 07:15:28;;;;;;;11.55;4.42;;;;;;;3.12;100.00;148450.78;1706175;82;21047;-60
2022/02/05 07:20:39;;;;;;;10.20;4.30;;;;;;;3.11;100.00;148448.20;1705581;84;21095;-60
2022/02/05 07:23:28;;;;;;;10.13;4.83;;;;;;;3.10;100.00;148445.62;1702102;82;21206;-59
2022/02/05 07:31:13;;;;;;;8.20;4.10;;;;;;;3.11;100.00;148448.20;1696001;84;20206;-61
2022/02/05 07:33:40;;;;;;;11.45;3.90;;;;;;;3.17;100.00;148462.41;1706058;82;21082;-61
2022/02/05 07:36:06;;;;;;;11.65;4.83;;;;;;;3.20;100.00;148470.14;1643845;85;21823;-60
2022/02/05 07:38:34;;;;;;;15.90;5.10;;;;;;;3.25;100.00;148481.77;1642769;87;21072;-59
2022/02/05 07:41:00;;;;;;;9.13;4.12;;;;;;;3.30;100.00;148494.67;1677884;84;21037;-60
2022/02/05 07:43:29;;;;;;;9.83;4.92;;;;;;;3.35;100.00;148506.30;1703491;84;21018;-61
2022/02/05 07:45:56;;;;;;;8.88;4.28;;;;;;;3.37;100.00;148512.72;1703274;84;21667;-60
2022/02/05 07:48:23;;;;;;;9.40;4.42;;;;;;;3.38;100.00;148515.30;1703478;82;21092;-61
2022/02/05 07:50:49;;;;;;;14.63;4.62;;;;;;;3.40;100.00;148519.19;1703962;83;21108;-60
2022/02/05 07:53:16;;;;;;;9.93;4.45;;;;;;;3.43;100.00;148528.23;1644120;87;21068;-60
2022/02/05 07:55:43;;;;;;;13.87;4.13;;;;;;;3.46;100.00;148533.39;1711229;82;21081;-60
2022/02/05 07:58:10;;;;;;;12.13;5.05;;;;;;;3.51;100.00;148546.28;1704538;83;21080;-60
2022/02/05 08:00:38;;;;;;;10.72;4.22;;;;;;;3.57;100.00;148561.77;1637854;85;21121;-60
2022/02/05 08:03:04;;;;;;;12.93;4.97;;;;;;;3.60;100.00;148569.50;1638615;86;21092;-62
2022/02/05 08:05:32;;;;;;;7.47;3.90;;;;;;;3.62;100.00;148574.66;1650011;85;21071;-61
2022/02/05 08:07:59;;;;;;;10.38;5.25;;;;;;;3.66;100.00;148583.72;1631677;87;21068;-60
2022/02/05 08:10:31;;;;;;;12.18;4.95;;;;;;;3.69;100.00;148591.45;1645496;85;21109;-60
2022/02/05 08:12:57;;;;;;;12.25;5.42;;;;;;;3.70;100.00;148594.03;1643596;85;21157;-61
2022/02/05 08:15:27;;;;;;;11.38;5.00;;;;;;;3.72;100.00;148599.19;1638063;87;21471;-60
2022/02/05 08:17:54;;;;;;;13.05;4.05;;;;;;;3.72;100.00;148600.50;1638702;86;21143;-62
2022/02/05 08:20:21;;;;;;;9.30;4.72;;;;;;;3.74;100.00;148604.34;1690944;83;21108;-62
2022/02/05 08:22:49;;;;;;;10.28;4.70;;;;;;;3.75;100.00;148605.66;1682216;84;21007;-61
2022/02/05 08:25:17;;;;;;;15.30;4.83;;;;;;;3.76;100.00;148608.25;1679941;85;21222;-61
2022/02/05 08:27:44;;;;;;;15.18;5.28;;;;;;;3.78;100.00;148613.41;1679895;85;21098;-61
2022/02/05 08:30:14;;;;;;;11.00;5.10;;;;;;;3.82;100.00;148623.72;1681206;83;21012;-60
2022/02/05 08:32:41;;;;;;;13.58;4.90;;;;;;;3.87;100.00;148636.67;1681278;84;21547;-60
2022/02/05 08:35:09;;;;;;;15.23;5.58;;;;;;;3.91;100.00;148646.98;1689248;83;21058;-60
2022/02/05 08:37:39;;;;;;;17.80;5.40;;;;;;;3.96;100.00;148659.89;1681024;83;21144;-60
2022/02/05 08:40:07;;;;;;;15.35;5.78;;;;;;;4.03;100.00;148675.37;1681892;85;21525;-61
2022/02/05 08:42:34;;;;;;;16.57;5.78;;;;;;;4.08;100.00;148689.58;1684910;83;21541;-61
2022/02/05 08:45:01;;;;;;;9.20;4.97;;;;;;;4.16;100.00;148708.97;1686525;83;21630;-62
2022/02/05 08:47:29;;;;;;;17.55;5.83;;;;;;;4.23;100.00;148727.03;1682971;83;21104;-60
2022/02/05 08:49:56;;;;;;;15.10;5.85;;;;;;;4.27;100.00;148737.34;1680644;85;21140;-60
2022/02/05 08:52:26;;;;;;;12.60;5.78;;;;;;;4.36;100.00;148758.05;1682613;85;21040;-65
2022/02/05 08:54:52;;;;;;;19.98;5.50;;;;;;;4.44;100.00;148778.69;1680981;85;21512;-61
2022/02/05 08:57:19;;;;;;;16.10;5.15;;;;;;;4.54;100.00;148804.55;1691742;83;21064;-63
2022/02/05 09:00:01;;;;;;;14.07;4.87;;;;;;;4.62;100.00;148822.63;1679935;83;21064;-62
2022/02/05 09:02:30;;;;;;;12.40;5.47;;;;;;;4.77;100.00;148861.39;1663960;83;21805;-60
2022/02/05 09:07:19;;;;;;;15.55;5.37;;;;;;;4.86;100.00;148883.31;1658978;85;21108;-61
2022/02/05 09:12:31;;;;;;;15.72;6.15;;;;;;;4.97;100.00;148911.75;1663172;85;21761;-64
2022/02/05 09:14:49;;;;;;;14.68;6.12;;;;;;;5.05;100.00;148931.16;1659150;85;21741;-62
2022/02/05 09:17:16;;;;;;;18.10;6.80;;;;;;;5.14;100.00;148954.39;1652174;86;21128;-61
2022/02/05 09:19:43;;;;;;;17.87;7.25;;;;;;;5.22;100.00;148972.52;1659682;86;21064;-61
2022/02/05 09:22:11;;;;;;;12.20;6.80;;;;;;;5.28;99.04;148989.28;1660379;86;21522;-61
2022/02/05 09:24:38;;;;;;;14.45;6.97;;;;;;;5.36;97.87;149008.67;1658493;85;21116;-61
2022/02/05 09:27:08;;;;;;;17.65;7.70;;;;;;;5.45;96.65;149031.97;1659325;85;21765;-61
2022/02/05 09:32:05;;;;;;;15.80;6.87;;;;;;;5.58;94.75;149064.28;1823654;78;23636;-61
2022/02/05 09:34:31;;;;;;;14.47;7.22;;;;;;;5.58;93.73;149062.97;1783002;79;21411;-61
2022/02/05 09:36:59;;;;;;;14.80;7.15;;;;;;;5.62;93.04;149073.31;1781715;79;21140;-62
2022/02/05 09:39:26;;;;;;;14.63;7.25;;;;;;;5.64;92.25;149078.52;1783050;80;20937;-62
2022/02/05 09:41:53;;;;;;;14.00;6.87;;;;;;;5.69;91.34;149090.12;1782439;79;21647;-62
2022/02/05 09:44:29;;;;;;;14.00;6.65;;;;;;;5.71;90.31;149096.59;1795269;79;20965;-62
2022/02/05 09:46:56;;;;;;;13.75;6.22;;;;;;;5.73;89.34;149101.77;1795655;79;20968;-62
2022/02/05 09:49:26;;;;;;;14.23;7.25;;;;;;;5.75;88.53;149105.67;1782432;79;21133;-63
2022/02/05 09:52:07;;;;;;;19.17;7.67;;;;;;;5.77;87.92;149109.52;1782164;80;20886;-61
2022/02/05 09:54:23;;;;;;;15.18;7.60;;;;;;;5.75;87.62;149105.67;1798866;79;21011;-60
2022/02/05 09:56:50;;;;;;;15.90;7.37;;;;;;;5.74;87.09;149103.03;1790724;79;21545;-61
2022/02/05 09:59:17;;;;;;;14.00;6.42;;;;;;;5.73;86.93;149101.77;1795900;79;21095;-61
2022/02/05 10:01:45;;;;;;;11.35;6.28;;;;;;;5.73;86.74;149101.77;1782609;80;20985;-63
2022/02/05 10:04:12;;;;;;;14.13;7.25;;;;;;;5.72;86.38;149099.19;1782130;80;21083;-61
2022/02/05 10:06:48;;;;;;;12.65;6.60;;;;;;;5.70;86.15;149094.02;1783448;79;21083;-62
2022/02/05 10:09:16;;;;;;;13.13;6.60;;;;;;;5.72;86.02;149099.19;1797406;78;21536;-61
2022/02/05 10:12:03;;;;;;;15.38;7.47;;;;;;;5.71;85.70;149096.59;1784934;79;21479;-61
2022/02/05 10:14:34;;;;;;;16.40;6.95;;;;;;;5.72;85.55;149099.19;1806933;78;21008;-60
2022/02/05 10:17:04;;;;;;;14.93;7.12;;;;;;;5.71;85.24;149096.59;1782725;78;20999;-61
2022/02/05 10:19:52;;;;;;;16.05;6.67;;;;;;;5.70;84.88;149094.02;1783004;78;21473;-61
2022/02/05 10:22:20;;;;;;;14.20;8.25;;;;;;;5.69;84.50;149091.44;1803059;79;21394;-60
2022/02/05 10:24:52;;;;;;;13.48;7.28;;;;;;;5.68;84.26;149088.84;1795728;79;20973;-62
2022/02/05 10:27:39;;;;;;;14.78;7.60;;;;;;;5.69;84.32;149091.44;1790524;78;21084;-60
2022/02/05 10:30:21;;;;;;;15.35;6.67;;;;;;;5.74;84.39;149104.34;1783091;79;21041;-62
2022/02/05 10:32:50;;;;;;;19.60;6.92;;;;;;;5.71;83.65;149096.59;1785863;78;21532;-62
2022/02/05 10:35:22;;;;;;;14.33;7.42;;;;;;;5.71;83.65;149096.59;1782639;79;21091;-61
2022/02/05 10:37:52;;;;;;;14.60;7.22;;;;;;;5.70;83.40;149094.02;1780419;79;21500;-61
2022/02/05 10:40:29;;;;;;;12.75;7.72;;;;;;;5.70;83.07;149094.02;1767761;79;21707;-60
2022/02/05 10:43:02;;;;;;;16.10;7.85;;;;;;;5.70;82.81;149094.02;1785311;79;20894;-61
2022/02/05 10:45:41;;;;;;;14.87;7.33;;;;;;;5.71;82.60;149096.59;1763969;79;21038;-61
2022/02/05 10:48:10;;;;;;;17.70;7.30;;;;;;;5.74;82.42;149104.34;1768555;79;21049;-61
2022/02/05 10:50:36;;;;;;;13.95;6.37;;;;;;;5.76;82.42;149108.25;1773648;79;21044;-61
2022/02/05 10:53:27;;;;;;;13.85;7.50;;;;;;;5.79;82.46;149114.69;1772893;79;21156;-61
2022/02/05 10:56:01;;;;;;;14.35;8.18;;;;;;;5.81;82.36;149119.86;1766299;79;21424;-62
2022/02/05 10:58:38;;;;;;;13.93;7.08;;;;;;;5.80;82.16;149117.28;1776534;79;21008;-63
2022/02/05 11:07:17;;;;;;;15.40;7.33;;;;;;;5.85;80.13;149130.19;1786246;79;21129;-62
2022/02/05 11:09:53;;;;;;;13.95;7.35;;;;;;;5.82;79.16;149122.44;1773501;79;21068;-61
2022/02/05 11:20:08;;;;;;;15.43;6.92;;;;;;;5.80;76.82;149117.28;1772734;79;21120;-61
2022/02/05 11:22:51;;;;;;;13.90;6.92;;;;;;;5.77;76.29;149110.84;1781003;79;21072;-60
2022/02/05 11:25:19;;;;;;;12.28;7.15;;;;;;;5.72;76.04;149099.19;1786301;79;21150;-61
2022/02/05 11:27:50;;;;;;;14.03;7.17;;;;;;;5.69;76.15;149091.44;1787035;79;21028;-62
2022/02/05 11:30:42;;;;;;;13.10;7.78;;;;;;;5.69;76.45;149090.12;1778055;79;21084;-60
2022/02/05 11:33:31;;;;;;;17.12;7.53;;;;;;;5.68;76.84;149088.84;1778760;79;21164;-60
2022/02/05 11:38:36;;;;;;;16.62;8.15;;;;;;;5.65;77.64;149079.78;1775562;80;21469;-61
2022/02/05 11:41:06;;;;;;;;;;;;;;;5.62;78.05;149072.03;1788482;79;21011;-59
2022/02/05 11:43:35;;;;;;;20.50;9.70;;;;;;;5.59;78.58;149065.55;1773285;80;20155;-61
2022/02/05 11:46:14;;;;;;;17.15;9.35;;;;;;;5.57;78.94;149060.39;1785129;79;21126;-60
2022/02/05 11:48:56;;;;;;;15.85;8.35;;;;;;;5.55;79.36;149055.22;1779490;79;21052;-60
2022/02/05 11:51:36;;;;;;;14.43;8.53;;;;;;;5.56;79.64;149059.12;1780915;79;21482;-61
2022/02/05 11:54:10;;;;;;;18.82;8.80;;;;;;;5.55;79.94;149055.22;1764267;80;21565;-60
2022/02/05 11:57:03;;;;;;;16.75;8.85;;;;;;;5.57;80.30;149060.39;1777520;79;20996;-60
2022/02/05 11:59:34;;;;;;;17.92;9.28;;;;;;;5.58;80.47;149062.97;1777179;79;21131;-61
2022/02/05 12:02:16;;;;;;;17.17;9.18;;;;;;;5.58;80.57;149062.97;1774708;79;21025;-61
2022/02/05 12:04:42;;;;;;;17.40;8.78;;;;;;;5.58;80.54;149062.97;1689252;83;21037;-60
2022/02/05 12:07:11;;;;;;;17.40;9.20;;;;;;;5.57;80.44;149061.70;1765260;79;21123;-61
2022/02/05 12:09:50;;;;;;;27.22;9.18;;;;;;;5.57;80.36;149060.39;1763857;79;21083;-61
2022/02/05 12:12:36;;;;;;;18.75;8.60;;;;;;;5.56;80.20;149059.12;1744059;82;21691;-62
2022/02/05 12:15:18;;;;;;;18.65;8.83;;;;;;;5.56;80.06;149057.80;1780207;79;21562;-61
2022/02/05 12:24:14;;;;;;;16.67;8.23;;;;;;;5.57;79.63;149060.39;1763848;79;21064;-61
2022/02/05 12:26:25;;;;;;;16.25;8.75;;;;;;;5.55;79.46;149055.22;1760512;79;21505;-61
2022/02/05 12:28:55;;;;;;;23.55;9.23;;;;;;;5.52;79.36;149047.47;1776239;79;21430;-61
2022/02/05 12:31:34;;;;;;;18.60;9.05;;;;;;;5.49;79.48;149039.72;1779789;79;20978;-61
2022/02/05 12:34:00;;;;;;;18.60;8.83;;;;;;;5.48;79.56;149037.14;1770476;79;20997;-61
2022/02/05 12:36:40;;;;;;;16.55;8.78;;;;;;;5.49;79.66;149039.72;1771130;79;21082;-62
2022/02/05 12:39:17;;;;;;;14.05;8.35;;;;;;;5.49;79.78;149039.72;1770878;79;21848;-60
2022/02/05 12:41:51;;;;;;;16.55;8.80;;;;;;;5.49;79.70;149039.72;1785804;78;21616;-62
2022/02/05 12:44:26;;;;;;;22.37;9.35;;;;;;;5.47;79.71;149034.56;1771373;79;21593;-60
2022/02/05 12:47:00;;;;;;;;;;;;;;;5.42;79.85;149024.22;1774481;81;21002;-61
2022/02/05 12:49:37;;;;;;;14.60;8.13;;;;;;;5.39;79.98;149016.42;1783507;79;20184;-60
2022/02/05 12:51:58;;;;;;;17.02;8.33;;;;;;;5.36;80.36;149008.67;1777537;79;21422;-61
2022/02/05 12:54:27;;;;;;;14.23;8.25;;;;;;;5.37;80.68;149009.98;1770844;81;21478;-61
2022/02/05 12:56:56;;;;;;;14.90;8.48;;;;;;;5.36;80.97;149008.67;1779791;79;21127;-60
2022/02/05 12:59:36;;;;;;;19.52;9.23;;;;;;;5.34;81.23;149003.52;1771830;81;20953;-61
2022/02/05 13:02:07;;;;;;;19.42;8.80;;;;;;;5.33;81.62;149000.92;1778824;79;21050;-61
2022/02/05 13:04:40;;;;;;;15.65;9.13;;;;;;;5.36;81.92;149007.41;1774915;79;21750;-61
2022/02/05 13:07:18;;;;;;;15.90;9.23;;;;;;;5.38;82.21;149012.58;1772323;79;21450;-63
2022/02/05 13:09:50;;;;;;;17.05;8.70;;;;;;;5.39;82.61;149015.16;1778463;78;21015;-61
2022/02/05 13:12:22;;;;;;;16.52;9.40;;;;;;;5.41;82.71;149021.59;1777101;79;21434;-61
2022/02/05 13:15:07;;;;;;;18.57;9.70;;;;;;;5.40;83.02;149017.73;1771579;79;21072;-61
2022/02/05 13:18:10;;;;;;;16.57;9.30;;;;;;;5.39;83.64;149016.42;1782481;79;21134;-61
2022/02/05 13:28:40;;;;;;;20.23;10.78;;;;;;;5.35;85.26;149006.09;1770776;79;21698;-61
2022/02/05 13:34:33;;;;;;;;;;;;;;;5.31;85.77;148995.77;1777456;79;21013;-61
2022/02/05 13:36:29;;;;;;;21.23;11.15;;;;;;;5.27;86.13;148985.44;1748741;79;20131;-60
2022/02/05 13:42:10;;;;;;;18.80;11.18;;;;;;;5.20;86.73;148967.34;1693834;83;21097;-62
2022/02/05 13:44:59;;;;;;;19.20;10.38;;;;;;;5.10;87.32;148942.80;1753908;79;21260;-60
2022/02/05 13:47:31;;;;;;;21.07;10.30;;;;;;;5.10;87.32;148942.80;1769796;80;21154;-59
2022/02/05 13:50:13;;;;;;;22.90;11.43;;;;;;;5.09;87.97;148941.47;1791706;79;21552;-60
2022/02/05 13:52:54;;;;;;;17.75;10.38;;;;;;;5.11;88.34;148945.37;1776151;79;21088;-61
2022/02/05 13:55:27;;;;;;;22.00;11.08;;;;;;;5.11;88.67;148946.64;1779570;79;21060;-61
2022/02/05 13:58:12;;;;;;;23.70;11.80;;;;;;;5.09;89.38;148941.47;1770910;79;21164;-60
2022/02/05 14:00:50;;;;;;;21.55;11.53;;;;;;;5.09;89.38;148941.47;1771272;79;21442;-62
2022/02/05 14:03:36;;;;;;;26.30;11.18;;;;;;;5.05;89.69;148931.16;1783093;79;21005;-61
2022/02/05 14:06:11;;;;;;;16.17;10.50;;;;;;;5.04;89.85;148927.25;1770250;81;21470;-62
2022/02/05 14:08:50;;;;;;;19.87;10.88;;;;;;;4.99;89.99;148916.92;1771231;79;21092;-61
2022/02/05 14:11:31;;;;;;;20.92;12.25;;;;;;;4.95;90.23;148905.28;1785251;79;21559;-62
2022/02/05 14:14:00;;;;;;;20.65;10.95;;;;;;;4.91;90.75;148894.95;1771558;81;20989;-60
2022/02/05 14:16:34;;;;;;;18.55;10.53;;;;;;;4.91;90.75;148894.95;1771841;79;21024;-59
2022/02/05 14:19:04;;;;;;;20.57;10.55;;;;;;;4.87;90.94;148887.20;1770702;79;21044;-60